sensor_id;sensor_type;location;lat;lon;timestamp;P1;durP1;ratioP1;P2;durP2;ratioP2
30127;SDS011;16942;53.196;6.592;2022-11-20T00:00:45;17.83;;;9.23;;
30127;SDS011;16942;53.196;6.592;2022-11-20T00:03:12;17.57;;;9.03;;
30127;SDS011;16942;53.196;6.592;2022-11-20T00:05:38;17.13;;;8.90;;
30127;SDS011;16942;53.196;6.592;2022-11-20T00:08:04;15.10;;;8.23;;
30127;SDS011;16942;53.196;6.592;2022-11-20T00:10:30;17.60;;;9.00;;
30127;SDS011;16942;53.196;6.592;2022-11-20T00:12:57;18.43;;;9.67;;
30127;SDS011;16942;53.196;6.592;2022-11-20T00:15:24;17.57;;;9.27;;
30127;SDS011;16942;53.196;6.592;2022-11-20T00:17:50;23.03;;;11.03;;
30127;SDS011;16942;53.196;6.592;2022-11-20T00:20:16;19.47;;;10.23;;
30127;SDS011;16942;53.196;6.592;2022-11-20T00:22:42;20.10;;;9.73;;
30127;SDS011;16942;53.196;6.592;2022-11-20T00:25:08;20.27;;;10.53;;
30127;SDS011;16942;53.196;6.592;2022-11-20T00:27:34;16.10;;;9.00;;
30127;SDS011;16942;53.196;6.592;2022-11-20T00:30:00;15.87;;;8.97;;
30127;SDS011;16942;53.196;6.592;2022-11-20T00:32:26;18.43;;;9.90;;
30127;SDS011;16942;53.196;6.592;2022-11-20T00:34:52;19.87;;;8.70;;
30127;SDS011;16942;53.196;6.592;2022-11-20T00:37:18;16.43;;;9.10;;
30127;SDS011;16942;53.196;6.592;2022-11-20T00:39:44;18.50;;;8.57;;
30127;SDS011;16942;53.196;6.592;2022-11-20T00:42:10;18.40;;;9.80;;
30127;SDS011;16942;53.196;6.592;2022-11-20T00:44:36;15.43;;;8.90;;
30127;SDS011;16942;53.196;6.592;2022-11-20T00:47:02;16.70;;;9.07;;
30127;SDS011;16942;53.196;6.592;2022-11-20T00:49:28;18.17;;;8.70;;
30127;SDS011;16942;53.196;6.592;2022-11-20T00:51:55;17.53;;;8.97;;
30127;SDS011;16942;53.196;6.592;2022-11-20T00:54:21;16.23;;;9.17;;
30127;SDS011;16942;53.196;6.592;2022-11-20T00:56:47;17.77;;;8.83;;
30127;SDS011;16942;53.196;6.592;2022-11-20T00:59:13;16.43;;;7.97;;
30127;SDS011;16942;53.196;6.592;2022-11-20T01:01:39;14.63;;;8.30;;
30127;SDS011;16942;53.196;6.592;2022-11-20T01:04:05;14.90;;;7.87;;
30127;SDS011;16942;53.196;6.592;2022-11-20T01:06:35;15.50;;;7.90;;
30127;SDS011;16942;53.196;6.592;2022-11-20T01:09:11;18.17;;;7.73;;
30127;SDS011;16942;53.196;6.592;2022-11-20T01:11:39;16.07;;;8.30;;
30127;SDS011;16942;53.196;6.592;2022-11-20T01:14:07;16.17;;;8.40;;
30127;SDS011;16942;53.196;6.592;2022-11-20T01:16:34;13.53;;;7.70;;
30127;SDS011;16942;53.196;6.592;2022-11-20T01:19:03;15.70;;;8.23;;
30127;SDS011;16942;53.196;6.592;2022-11-20T01:21:33;14.53;;;8.67;;
30127;SDS011;16942;53.196;6.592;2022-11-20T01:24:00;16.37;;;8.17;;
30127;SDS011;16942;53.196;6.592;2022-11-20T01:26:28;16.23;;;8.87;;
30127;SDS011;16942;53.196;6.592;2022-11-20T01:28:55;17.23;;;8.97;;
30127;SDS011;16942;53.196;6.592;2022-11-20T01:31:25;17.07;;;8.87;;
30127;SDS011;16942;53.196;6.592;2022-11-20T01:33:52;15.13;;;8.47;;
30127;SDS011;16942;53.196;6.592;2022-11-20T01:36:20;18.50;;;9.13;;
30127;SDS011;16942;53.196;6.592;2022-11-20T01:38:46;17.20;;;9.23;;
30127;SDS011;16942;53.196;6.592;2022-11-20T01:41:12;15.17;;;8.83;;
30127;SDS011;16942;53.196;6.592;2022-11-20T01:43:59;17.90;;;9.63;;
30127;SDS011;16942;53.196;6.592;2022-11-20T01:46:25;13.20;;;8.20;;
30127;SDS011;16942;53.196;6.592;2022-11-20T01:48:54;14.20;;;7.93;;
30127;SDS011;16942;53.196;6.592;2022-11-20T01:51:28;18.37;;;9.23;;
30127;SDS011;16942;53.196;6.592;2022-11-20T01:53:55;17.30;;;9.53;;
30127;SDS011;16942;53.196;6.592;2022-11-20T01:56:24;15.83;;;8.60;;
30127;SDS011;16942;53.196;6.592;2022-11-20T01:58:52;16.27;;;9.27;;
30127;SDS011;16942;53.196;6.592;2022-11-20T02:01:20;17.90;;;9.33;;
30127;SDS011;16942;53.196;6.592;2022-11-20T02:03:46;16.17;;;8.37;;
30127;SDS011;16942;53.196;6.592;2022-11-20T02:08:45;17.83;;;9.33;;
30127;SDS011;16942;53.196;6.592;2022-11-20T02:11:11;18.97;;;9.50;;
30127;SDS011;16942;53.196;6.592;2022-11-20T02:13:37;16.33;;;9.30;;
30127;SDS011;16942;53.196;6.592;2022-11-20T02:16:26;15.10;;;9.23;;
30127;SDS011;16942;53.196;6.592;2022-11-20T02:18:53;16.33;;;8.87;;
30127;SDS011;16942;53.196;6.592;2022-11-20T02:26:15;15.77;;;8.53;;
30127;SDS011;16942;53.196;6.592;2022-11-20T02:28:41;19.47;;;10.07;;
30127;SDS011;16942;53.196;6.592;2022-11-20T02:31:07;16.20;;;9.00;;
30127;SDS011;16942;53.196;6.592;2022-11-20T02:33:33;21.97;;;9.80;;
30127;SDS011;16942;53.196;6.592;2022-11-20T02:35:59;17.23;;;8.73;;
30127;SDS011;16942;53.196;6.592;2022-11-20T02:38:26;17.47;;;9.13;;
30127;SDS011;16942;53.196;6.592;2022-11-20T02:40:52;17.43;;;9.70;;
30127;SDS011;16942;53.196;6.592;2022-11-20T02:43:18;17.63;;;8.83;;
30127;SDS011;16942;53.196;6.592;2022-11-20T02:45:44;17.00;;;9.47;;
30127;SDS011;16942;53.196;6.592;2022-11-20T02:48:10;19.07;;;9.70;;
30127;SDS011;16942;53.196;6.592;2022-11-20T02:50:36;21.47;;;9.33;;
30127;SDS011;16942;53.196;6.592;2022-11-20T02:53:03;17.47;;;9.53;;
30127;SDS011;16942;53.196;6.592;2022-11-20T02:55:30;16.50;;;10.30;;
30127;SDS011;16942;53.196;6.592;2022-11-20T02:57:56;19.63;;;9.80;;
30127;SDS011;16942;53.196;6.592;2022-11-20T03:00:22;15.87;;;9.17;;
30127;SDS011;16942;53.196;6.592;2022-11-20T03:02:48;14.67;;;8.93;;
30127;SDS011;16942;53.196;6.592;2022-11-20T03:05:14;20.13;;;9.97;;
30127;SDS011;16942;53.196;6.592;2022-11-20T03:07:40;16.63;;;9.70;;
30127;SDS011;16942;53.196;6.592;2022-11-20T03:10:06;18.73;;;10.30;;
30127;SDS011;16942;53.196;6.592;2022-11-20T03:12:32;18.37;;;9.87;;
30127;SDS011;16942;53.196;6.592;2022-11-20T03:14:58;19.00;;;9.23;;
30127;SDS011;16942;53.196;6.592;2022-11-20T03:17:24;14.23;;;8.73;;
30127;SDS011;16942;53.196;6.592;2022-11-20T03:19:50;14.70;;;8.70;;
30127;SDS011;16942;53.196;6.592;2022-11-20T03:22:16;15.33;;;8.73;;
30127;SDS011;16942;53.196;6.592;2022-11-20T03:24:42;14.33;;;8.70;;
30127;SDS011;16942;53.196;6.592;2022-11-20T03:27:08;16.03;;;9.33;;
30127;SDS011;16942;53.196;6.592;2022-11-20T03:29:35;14.80;;;8.20;;
30127;SDS011;16942;53.196;6.592;2022-11-20T03:32:01;17.03;;;9.40;;
30127;SDS011;16942;53.196;6.592;2022-11-20T03:34:27;20.37;;;8.67;;
30127;SDS011;16942;53.196;6.592;2022-11-20T03:36:53;16.27;;;8.70;;
30127;SDS011;16942;53.196;6.592;2022-11-20T03:39:19;19.57;;;9.60;;
30127;SDS011;16942;53.196;6.592;2022-11-20T03:41:45;14.77;;;8.03;;
30127;SDS011;16942;53.196;6.592;2022-11-20T03:44:11;17.37;;;8.63;;
30127;SDS011;16942;53.196;6.592;2022-11-20T03:46:37;16.97;;;9.47;;
30127;SDS011;16942;53.196;6.592;2022-11-20T03:49:04;15.37;;;8.70;;
30127;SDS011;16942;53.196;6.592;2022-11-20T03:51:31;15.90;;;9.13;;
30127;SDS011;16942;53.196;6.592;2022-11-20T03:53:59;16.47;;;8.87;;
30127;SDS011;16942;53.196;6.592;2022-11-20T03:56:26;18.60;;;10.00;;
30127;SDS011;16942;53.196;6.592;2022-11-20T03:58:52;16.77;;;8.80;;
30127;SDS011;16942;53.196;6.592;2022-11-20T04:01:20;15.67;;;8.57;;
30127;SDS011;16942;53.196;6.592;2022-11-20T04:03:46;16.53;;;9.67;;
30127;SDS011;16942;53.196;6.592;2022-11-20T04:06:19;16.67;;;8.90;;
30127;SDS011;16942;53.196;6.592;2022-11-20T04:08:46;19.70;;;7.90;;
30127;SDS011;16942;53.196;6.592;2022-11-20T04:11:13;14.43;;;9.07;;
30127;SDS011;16942;53.196;6.592;2022-11-20T04:13:39;15.23;;;8.53;;
30127;SDS011;16942;53.196;6.592;2022-11-20T04:16:05;14.23;;;8.70;;
30127;SDS011;16942;53.196;6.592;2022-11-20T04:18:32;14.03;;;8.63;;
30127;SDS011;16942;53.196;6.592;2022-11-20T04:20:58;18.00;;;8.77;;
30127;SDS011;16942;53.196;6.592;2022-11-20T04:23:24;13.63;;;8.13;;
30127;SDS011;16942;53.196;6.592;2022-11-20T04:25:51;17.00;;;9.17;;
30127;SDS011;16942;53.196;6.592;2022-11-20T04:28:17;16.00;;;8.70;;
30127;SDS011;16942;53.196;6.592;2022-11-20T04:30:43;14.77;;;8.77;;
30127;SDS011;16942;53.196;6.592;2022-11-20T04:33:09;15.13;;;7.97;;
30127;SDS011;16942;53.196;6.592;2022-11-20T04:35:35;13.07;;;8.47;;
30127;SDS011;16942;53.196;6.592;2022-11-20T04:38:01;13.97;;;8.67;;
30127;SDS011;16942;53.196;6.592;2022-11-20T04:40:27;16.00;;;9.30;;
30127;SDS011;16942;53.196;6.592;2022-11-20T04:42:54;13.17;;;8.20;;
30127;SDS011;16942;53.196;6.592;2022-11-20T04:45:20;10.97;;;7.13;;
30127;SDS011;16942;53.196;6.592;2022-11-20T04:47:46;15.63;;;8.73;;
30127;SDS011;16942;53.196;6.592;2022-11-20T04:50:12;14.00;;;8.03;;
30127;SDS011;16942;53.196;6.592;2022-11-20T04:52:38;17.07;;;8.37;;
30127;SDS011;16942;53.196;6.592;2022-11-20T04:55:04;12.97;;;7.73;;
30127;SDS011;16942;53.196;6.592;2022-11-20T04:57:30;15.50;;;8.97;;
30127;SDS011;16942;53.196;6.592;2022-11-20T04:59:56;16.30;;;8.87;;
30127;SDS011;16942;53.196;6.592;2022-11-20T05:02:22;18.67;;;8.17;;
30127;SDS011;16942;53.196;6.592;2022-11-20T05:04:48;15.40;;;8.13;;
30127;SDS011;16942;53.196;6.592;2022-11-20T05:07:14;16.23;;;9.00;;
30127;SDS011;16942;53.196;6.592;2022-11-20T05:09:41;12.37;;;7.97;;
30127;SDS011;16942;53.196;6.592;2022-11-20T05:12:07;15.87;;;7.97;;
30127;SDS011;16942;53.196;6.592;2022-11-20T05:14:33;14.40;;;7.93;;
30127;SDS011;16942;53.196;6.592;2022-11-20T05:16:59;12.57;;;7.20;;
30127;SDS011;16942;53.196;6.592;2022-11-20T05:19:25;11.17;;;6.83;;
30127;SDS011;16942;53.196;6.592;2022-11-20T05:21:51;14.20;;;7.90;;
30127;SDS011;16942;53.196;6.592;2022-11-20T05:24:17;13.50;;;7.60;;
30127;SDS011;16942;53.196;6.592;2022-11-20T05:26:44;12.27;;;7.43;;
30127;SDS011;16942;53.196;6.592;2022-11-20T05:29:13;13.33;;;8.10;;
30127;SDS011;16942;53.196;6.592;2022-11-20T05:31:39;12.13;;;7.40;;
30127;SDS011;16942;53.196;6.592;2022-11-20T05:34:06;11.40;;;7.30;;
30127;SDS011;16942;53.196;6.592;2022-11-20T05:36:32;13.10;;;7.00;;
30127;SDS011;16942;53.196;6.592;2022-11-20T05:38:58;17.30;;;7.10;;
30127;SDS011;16942;53.196;6.592;2022-11-20T05:41:24;13.40;;;7.13;;
30127;SDS011;16942;53.196;6.592;2022-11-20T05:43:50;13.93;;;7.50;;
30127;SDS011;16942;53.196;6.592;2022-11-20T05:46:20;14.70;;;7.90;;
30127;SDS011;16942;53.196;6.592;2022-11-20T05:48:46;12.47;;;7.97;;
30127;SDS011;16942;53.196;6.592;2022-11-20T05:51:13;13.63;;;7.93;;
30127;SDS011;16942;53.196;6.592;2022-11-20T05:53:40;16.20;;;8.43;;
30127;SDS011;16942;53.196;6.592;2022-11-20T05:56:07;13.93;;;8.10;;
30127;SDS011;16942;53.196;6.592;2022-11-20T05:58:34;17.30;;;8.47;;
30127;SDS011;16942;53.196;6.592;2022-11-20T06:01:08;13.33;;;7.73;;
30127;SDS011;16942;53.196;6.592;2022-11-20T06:03:35;14.47;;;7.53;;
30127;SDS011;16942;53.196;6.592;2022-11-20T06:06:01;14.10;;;8.37;;
30127;SDS011;16942;53.196;6.592;2022-11-20T06:08:28;14.90;;;8.00;;
30127;SDS011;16942;53.196;6.592;2022-11-20T06:10:54;13.83;;;7.00;;
30127;SDS011;16942;53.196;6.592;2022-11-20T06:13:20;13.50;;;7.37;;
30127;SDS011;16942;53.196;6.592;2022-11-20T06:15:50;16.70;;;7.90;;
30127;SDS011;16942;53.196;6.592;2022-11-20T06:18:16;15.10;;;8.03;;
30127;SDS011;16942;53.196;6.592;2022-11-20T06:20:42;13.17;;;8.03;;
30127;SDS011;16942;53.196;6.592;2022-11-20T06:23:08;12.10;;;7.07;;
30127;SDS011;16942;53.196;6.592;2022-11-20T06:25:41;13.73;;;8.00;;
30127;SDS011;16942;53.196;6.592;2022-11-20T06:28:07;14.33;;;7.80;;
30127;SDS011;16942;53.196;6.592;2022-11-20T06:30:33;12.67;;;7.33;;
30127;SDS011;16942;53.196;6.592;2022-11-20T06:33:00;14.33;;;8.00;;
30127;SDS011;16942;53.196;6.592;2022-11-20T06:35:26;12.10;;;7.43;;
30127;SDS011;16942;53.196;6.592;2022-11-20T06:37:52;12.27;;;7.10;;
30127;SDS011;16942;53.196;6.592;2022-11-20T06:40:18;11.40;;;7.13;;
30127;SDS011;16942;53.196;6.592;2022-11-20T06:42:44;13.23;;;7.20;;
30127;SDS011;16942;53.196;6.592;2022-11-20T06:45:10;13.27;;;6.90;;
30127;SDS011;16942;53.196;6.592;2022-11-20T06:47:36;12.23;;;7.37;;
30127;SDS011;16942;53.196;6.592;2022-11-20T06:50:02;13.93;;;7.40;;
30127;SDS011;16942;53.196;6.592;2022-11-20T06:52:28;12.40;;;6.90;;
30127;SDS011;16942;53.196;6.592;2022-11-20T06:54:54;14.53;;;7.00;;
30127;SDS011;16942;53.196;6.592;2022-11-20T06:57:20;12.70;;;7.30;;
30127;SDS011;16942;53.196;6.592;2022-11-20T06:59:46;11.40;;;7.17;;
30127;SDS011;16942;53.196;6.592;2022-11-20T07:02:12;13.43;;;7.27;;
30127;SDS011;16942;53.196;6.592;2022-11-20T07:04:38;13.33;;;7.70;;
30127;SDS011;16942;53.196;6.592;2022-11-20T07:07:04;13.97;;;7.80;;
30127;SDS011;16942;53.196;6.592;2022-11-20T07:09:33;11.90;;;6.67;;
30127;SDS011;16942;53.196;6.592;2022-11-20T07:11:59;14.73;;;7.80;;
30127;SDS011;16942;53.196;6.592;2022-11-20T07:14:25;14.50;;;7.40;;
30127;SDS011;16942;53.196;6.592;2022-11-20T07:16:51;16.53;;;7.73;;
30127;SDS011;16942;53.196;6.592;2022-11-20T07:19:17;16.27;;;7.60;;
30127;SDS011;16942;53.196;6.592;2022-11-20T07:21:43;13.23;;;7.33;;
30127;SDS011;16942;53.196;6.592;2022-11-20T07:24:09;13.03;;;7.80;;
30127;SDS011;16942;53.196;6.592;2022-11-20T07:26:35;12.23;;;7.43;;
30127;SDS011;16942;53.196;6.592;2022-11-20T07:29:01;13.60;;;7.43;;
30127;SDS011;16942;53.196;6.592;2022-11-20T07:31:28;14.80;;;7.67;;
30127;SDS011;16942;53.196;6.592;2022-11-20T07:33:54;13.10;;;7.70;;
30127;SDS011;16942;53.196;6.592;2022-11-20T07:36:20;10.80;;;6.37;;
30127;SDS011;16942;53.196;6.592;2022-11-20T07:38:46;13.10;;;7.57;;
30127;SDS011;16942;53.196;6.592;2022-11-20T07:41:12;16.83;;;7.63;;
30127;SDS011;16942;53.196;6.592;2022-11-20T07:43:38;13.53;;;7.40;;
30127;SDS011;16942;53.196;6.592;2022-11-20T07:46:04;12.17;;;7.23;;
30127;SDS011;16942;53.196;6.592;2022-11-20T07:48:30;12.97;;;7.80;;
30127;SDS011;16942;53.196;6.592;2022-11-20T07:50:57;14.77;;;8.13;;
30127;SDS011;16942;53.196;6.592;2022-11-20T07:53:23;13.63;;;6.57;;
30127;SDS011;16942;53.196;6.592;2022-11-20T07:55:49;14.00;;;7.83;;
30127;SDS011;16942;53.196;6.592;2022-11-20T07:58:19;13.93;;;8.03;;
30127;SDS011;16942;53.196;6.592;2022-11-20T08:00:45;12.60;;;7.63;;
30127;SDS011;16942;53.196;6.592;2022-11-20T08:03:11;14.87;;;7.53;;
30127;SDS011;16942;53.196;6.592;2022-11-20T08:05:37;13.67;;;6.83;;
30127;SDS011;16942;53.196;6.592;2022-11-20T08:08:03;12.40;;;7.00;;
30127;SDS011;16942;53.196;6.592;2022-11-20T08:10:29;13.33;;;7.33;;
30127;SDS011;16942;53.196;6.592;2022-11-20T08:12:56;12.83;;;7.40;;
30127;SDS011;16942;53.196;6.592;2022-11-20T08:15:40;13.63;;;7.43;;
30127;SDS011;16942;53.196;6.592;2022-11-20T08:18:10;12.53;;;7.60;;
30127;SDS011;16942;53.196;6.592;2022-11-20T08:20:39;10.13;;;6.53;;
30127;SDS011;16942;53.196;6.592;2022-11-20T08:23:06;14.17;;;7.53;;
30127;SDS011;16942;53.196;6.592;2022-11-20T08:25:32;11.73;;;7.37;;
30127;SDS011;16942;53.196;6.592;2022-11-20T08:27:59;14.70;;;7.80;;
30127;SDS011;16942;53.196;6.592;2022-11-20T08:30:25;12.23;;;7.00;;
30127;SDS011;16942;53.196;6.592;2022-11-20T08:32:52;12.07;;;6.93;;
30127;SDS011;16942;53.196;6.592;2022-11-20T08:35:18;12.30;;;7.47;;
30127;SDS011;16942;53.196;6.592;2022-11-20T08:37:47;13.40;;;6.97;;
30127;SDS011;16942;53.196;6.592;2022-11-20T08:40:14;13.90;;;7.63;;
30127;SDS011;16942;53.196;6.592;2022-11-20T08:42:49;11.23;;;6.67;;
30127;SDS011;16942;53.196;6.592;2022-11-20T08:45:16;12.63;;;6.83;;
30127;SDS011;16942;53.196;6.592;2022-11-20T08:47:42;16.53;;;8.17;;
30127;SDS011;16942;53.196;6.592;2022-11-20T08:50:09;14.20;;;8.30;;
30127;SDS011;16942;53.196;6.592;2022-11-20T08:52:35;12.03;;;7.47;;
30127;SDS011;16942;53.196;6.592;2022-11-20T08:55:01;12.00;;;8.00;;
30127;SDS011;16942;53.196;6.592;2022-11-20T08:57:27;14.33;;;6.93;;
30127;SDS011;16942;53.196;6.592;2022-11-20T08:59:53;13.43;;;7.27;;
30127;SDS011;16942;53.196;6.592;2022-11-20T09:02:19;17.03;;;7.77;;
30127;SDS011;16942;53.196;6.592;2022-11-20T09:04:45;18.07;;;8.63;;
30127;SDS011;16942;53.196;6.592;2022-11-20T09:07:11;11.63;;;7.23;;
30127;SDS011;16942;53.196;6.592;2022-11-20T09:09:38;11.67;;;7.53;;
30127;SDS011;16942;53.196;6.592;2022-11-20T09:12:04;14.87;;;7.87;;
30127;SDS011;16942;53.196;6.592;2022-11-20T09:14:30;19.23;;;8.23;;
30127;SDS011;16942;53.196;6.592;2022-11-20T09:16:56;13.20;;;7.93;;
30127;SDS011;16942;53.196;6.592;2022-11-20T09:19:23;12.37;;;7.00;;
30127;SDS011;16942;53.196;6.592;2022-11-20T09:21:50;14.57;;;7.17;;
30127;SDS011;16942;53.196;6.592;2022-11-20T09:24:16;13.13;;;7.63;;
30127;SDS011;16942;53.196;6.592;2022-11-20T09:26:42;13.93;;;7.67;;
30127;SDS011;16942;53.196;6.592;2022-11-20T09:29:08;11.50;;;6.60;;
30127;SDS011;16942;53.196;6.592;2022-11-20T09:31:34;12.87;;;7.33;;
30127;SDS011;16942;53.196;6.592;2022-11-20T09:34:00;13.47;;;6.87;;
30127;SDS011;16942;53.196;6.592;2022-11-20T09:36:26;13.27;;;6.53;;
30127;SDS011;16942;53.196;6.592;2022-11-20T09:38:52;11.93;;;6.87;;
30127;SDS011;16942;53.196;6.592;2022-11-20T09:46:55;11.97;;;6.90;;
30127;SDS011;16942;53.196;6.592;2022-11-20T09:54:21;11.87;;;6.77;;
30127;SDS011;16942;53.196;6.592;2022-11-20T09:56:55;12.43;;;6.57;;
30127;SDS011;16942;53.196;6.592;2022-11-20T10:01:57;13.53;;;7.03;;
30127;SDS011;16942;53.196;6.592;2022-11-20T10:04:24;11.23;;;6.97;;
30127;SDS011;16942;53.196;6.592;2022-11-20T10:06:56;14.63;;;6.50;;
30127;SDS011;16942;53.196;6.592;2022-11-20T10:09:30;10.00;;;6.30;;
30127;SDS011;16942;53.196;6.592;2022-11-20T10:14:26;11.70;;;6.87;;
30127;SDS011;16942;53.196;6.592;2022-11-20T10:21:57;11.20;;;6.20;;
30127;SDS011;16942;53.196;6.592;2022-11-20T10:29:47;11.70;;;6.07;;
30127;SDS011;16942;53.196;6.592;2022-11-20T10:32:19;10.53;;;6.07;;
30127;SDS011;16942;53.196;6.592;2022-11-20T10:37:12;13.03;;;6.33;;
30127;SDS011;16942;53.196;6.592;2022-11-20T10:39:51;11.73;;;6.00;;
30127;SDS011;16942;53.196;6.592;2022-11-20T10:42:53;10.90;;;6.37;;
30127;SDS011;16942;53.196;6.592;2022-11-20T10:45:19;9.93;;;6.27;;
30127;SDS011;16942;53.196;6.592;2022-11-20T10:47:48;9.37;;;5.63;;
30127;SDS011;16942;53.196;6.592;2022-11-20T10:50:16;10.83;;;6.40;;
30127;SDS011;16942;53.196;6.592;2022-11-20T10:52:58;10.27;;;6.17;;
30127;SDS011;16942;53.196;6.592;2022-11-20T11:00:30;10.20;;;6.40;;
30127;SDS011;16942;53.196;6.592;2022-11-20T11:02:56;10.63;;;6.33;;
30127;SDS011;16942;53.196;6.592;2022-11-20T11:05:44;10.30;;;5.93;;
30127;SDS011;16942;53.196;6.592;2022-11-20T11:08:15;14.17;;;7.07;;
30127;SDS011;16942;53.196;6.592;2022-11-20T11:10:51;10.47;;;6.20;;
30127;SDS011;16942;53.196;6.592;2022-11-20T11:13:29;9.40;;;6.17;;
30127;SDS011;16942;53.196;6.592;2022-11-20T11:15:55;11.70;;;6.60;;
30127;SDS011;16942;53.196;6.592;2022-11-20T11:18:32;12.10;;;6.63;;
30127;SDS011;16942;53.196;6.592;2022-11-20T11:20:59;9.97;;;6.00;;
30127;SDS011;16942;53.196;6.592;2022-11-20T11:23:32;9.30;;;5.70;;
30127;SDS011;16942;53.196;6.592;2022-11-20T11:26:00;9.37;;;6.10;;
30127;SDS011;16942;53.196;6.592;2022-11-20T11:28:26;12.30;;;6.37;;
30127;SDS011;16942;53.196;6.592;2022-11-20T11:30:53;12.30;;;6.63;;
30127;SDS011;16942;53.196;6.592;2022-11-20T11:35:49;12.90;;;6.37;;
30127;SDS011;16942;53.196;6.592;2022-11-20T11:38:19;10.00;;;5.90;;
30127;SDS011;16942;53.196;6.592;2022-11-20T11:40:47;10.53;;;6.10;;
30127;SDS011;16942;53.196;6.592;2022-11-20T11:43:17;11.27;;;6.37;;
30127;SDS011;16942;53.196;6.592;2022-11-20T11:46:04;10.17;;;5.93;;
30127;SDS011;16942;53.196;6.592;2022-11-20T11:48:31;8.73;;;5.87;;
30127;SDS011;16942;53.196;6.592;2022-11-20T11:50:57;9.47;;;5.73;;
30127;SDS011;16942;53.196;6.592;2022-11-20T11:53:23;8.67;;;5.77;;
30127;SDS011;16942;53.196;6.592;2022-11-20T11:55:54;8.30;;;5.63;;
30127;SDS011;16942;53.196;6.592;2022-11-20T11:58:28;11.00;;;5.67;;
30127;SDS011;16942;53.196;6.592;2022-11-20T12:00:58;9.70;;;6.13;;
30127;SDS011;16942;53.196;6.592;2022-11-20T12:03:34;8.97;;;6.00;;
30127;SDS011;16942;53.196;6.592;2022-11-20T12:06:04;9.80;;;5.80;;
30127;SDS011;16942;53.196;6.592;2022-11-20T12:14:03;9.00;;;5.43;;
30127;SDS011;16942;53.196;6.592;2022-11-20T12:16:30;16.33;;;6.43;;
30127;SDS011;16942;53.196;6.592;2022-11-20T12:18:58;8.57;;;5.63;;
30127;SDS011;16942;53.196;6.592;2022-11-20T12:22:26;10.47;;;4.90;;
30127;SDS011;16942;53.196;6.592;2022-11-20T12:24:24;9.60;;;5.23;;
30127;SDS011;16942;53.196;6.592;2022-11-20T12:29:41;6.97;;;5.07;;
30127;SDS011;16942;53.196;6.592;2022-11-20T12:39:48;7.97;;;5.10;;
30127;SDS011;16942;53.196;6.592;2022-11-20T12:42:28;7.97;;;5.13;;
30127;SDS011;16942;53.196;6.592;2022-11-20T12:50:22;8.70;;;5.40;;
30127;SDS011;16942;53.196;6.592;2022-11-20T12:52:52;9.20;;;5.50;;
30127;SDS011;16942;53.196;6.592;2022-11-20T12:55:25;9.07;;;6.27;;
30127;SDS011;16942;53.196;6.592;2022-11-20T12:57:56;7.53;;;4.73;;
30127;SDS011;16942;53.196;6.592;2022-11-20T13:00:24;6.27;;;4.20;;
30127;SDS011;16942;53.196;6.592;2022-11-20T13:08:04;7.80;;;4.40;;
30127;SDS011;16942;53.196;6.592;2022-11-20T13:10:35;6.47;;;4.20;;
30127;SDS011;16942;53.196;6.592;2022-11-20T13:13:29;5.97;;;3.87;;
30127;SDS011;16942;53.196;6.592;2022-11-20T13:15:56;10.77;;;4.20;;
30127;SDS011;16942;53.196;6.592;2022-11-20T13:18:25;5.60;;;4.13;;
30127;SDS011;16942;53.196;6.592;2022-11-20T13:20:51;6.87;;;4.17;;
30127;SDS011;16942;53.196;6.592;2022-11-20T13:23:24;7.87;;;4.37;;
30127;SDS011;16942;53.196;6.592;2022-11-20T13:25:50;6.20;;;4.13;;
30127;SDS011;16942;53.196;6.592;2022-11-20T13:30:53;6.73;;;4.00;;
30127;SDS011;16942;53.196;6.592;2022-11-20T13:33:32;10.77;;;4.60;;
30127;SDS011;16942;53.196;6.592;2022-11-20T13:36:00;8.07;;;4.90;;
30127;SDS011;16942;53.196;6.592;2022-11-20T13:38:26;11.10;;;4.60;;
30127;SDS011;16942;53.196;6.592;2022-11-20T13:40:59;6.27;;;4.37;;
30127;SDS011;16942;53.196;6.592;2022-11-20T13:43:47;6.27;;;4.40;;
30127;SDS011;16942;53.196;6.592;2022-11-20T13:46:13;6.23;;;4.10;;
30127;SDS011;16942;53.196;6.592;2022-11-20T13:48:43;8.33;;;4.60;;
30127;SDS011;16942;53.196;6.592;2022-11-20T13:56:29;6.77;;;4.80;;
30127;SDS011;16942;53.196;6.592;2022-11-20T13:59:02;5.83;;;4.30;;
30127;SDS011;16942;53.196;6.592;2022-11-20T14:01:32;9.70;;;5.57;;
30127;SDS011;16942;53.196;6.592;2022-11-20T14:03:59;6.97;;;4.70;;
30127;SDS011;16942;53.196;6.592;2022-11-20T14:06:26;8.57;;;5.40;;
30127;SDS011;16942;53.196;6.592;2022-11-20T14:08:53;11.10;;;5.53;;
30127;SDS011;16942;53.196;6.592;2022-11-20T14:11:20;10.67;;;5.73;;
30127;SDS011;16942;53.196;6.592;2022-11-20T14:13:59;10.00;;;5.60;;
30127;SDS011;16942;53.196;6.592;2022-11-20T14:16:26;7.97;;;5.27;;
30127;SDS011;16942;53.196;6.592;2022-11-20T14:18:53;7.90;;;4.90;;
30127;SDS011;16942;53.196;6.592;2022-11-20T14:21:26;9.03;;;5.67;;
30127;SDS011;16942;53.196;6.592;2022-11-20T14:24:13;9.30;;;4.93;;
30127;SDS011;16942;53.196;6.592;2022-11-20T14:26:42;7.87;;;5.03;;
30127;SDS011;16942;53.196;6.592;2022-11-20T14:29:28;8.63;;;5.23;;
30127;SDS011;16942;53.196;6.592;2022-11-20T14:31:55;10.73;;;5.03;;
30127;SDS011;16942;53.196;6.592;2022-11-20T14:34:23;8.37;;;4.90;;
30127;SDS011;16942;53.196;6.592;2022-11-20T14:36:51;8.17;;;5.00;;
30127;SDS011;16942;53.196;6.592;2022-11-20T14:39:21;8.33;;;5.13;;
30127;SDS011;16942;53.196;6.592;2022-11-20T14:41:51;9.03;;;5.40;;
30127;SDS011;16942;53.196;6.592;2022-11-20T14:44:17;6.40;;;4.60;;
30127;SDS011;16942;53.196;6.592;2022-11-20T14:46:45;9.30;;;5.30;;
30127;SDS011;16942;53.196;6.592;2022-11-20T14:49:11;9.40;;;5.20;;
30127;SDS011;16942;53.196;6.592;2022-11-20T14:51:38;7.27;;;4.50;;
30127;SDS011;16942;53.196;6.592;2022-11-20T14:54:14;8.67;;;5.17;;
30127;SDS011;16942;53.196;6.592;2022-11-20T14:56:41;9.13;;;5.90;;
30127;SDS011;16942;53.196;6.592;2022-11-20T14:59:08;7.53;;;5.70;;
30127;SDS011;16942;53.196;6.592;2022-11-20T15:01:34;9.57;;;6.03;;
30127;SDS011;16942;53.196;6.592;2022-11-20T15:04:08;9.30;;;5.50;;
30127;SDS011;16942;53.196;6.592;2022-11-20T15:06:35;9.50;;;4.90;;
30127;SDS011;16942;53.196;6.592;2022-11-20T15:09:02;9.23;;;5.40;;
30127;SDS011;16942;53.196;6.592;2022-11-20T15:11:30;10.33;;;5.67;;
30127;SDS011;16942;53.196;6.592;2022-11-20T15:13:57;11.87;;;6.10;;
30127;SDS011;16942;53.196;6.592;2022-11-20T15:16:23;8.93;;;5.43;;
30127;SDS011;16942;53.196;6.592;2022-11-20T15:18:51;9.93;;;5.40;;
30127;SDS011;16942;53.196;6.592;2022-11-20T15:21:19;14.53;;;6.57;;
30127;SDS011;16942;53.196;6.592;2022-11-20T15:23:48;9.53;;;6.10;;
30127;SDS011;16942;53.196;6.592;2022-11-20T15:26:17;11.27;;;6.70;;
30127;SDS011;16942;53.196;6.592;2022-11-20T15:28:45;10.70;;;6.63;;
30127;SDS011;16942;53.196;6.592;2022-11-20T15:31:13;10.90;;;6.77;;
30127;SDS011;16942;53.196;6.592;2022-11-20T15:33:39;13.13;;;7.07;;
30127;SDS011;16942;53.196;6.592;2022-11-20T15:36:05;8.30;;;5.87;;
30127;SDS011;16942;53.196;6.592;2022-11-20T15:38:31;11.30;;;6.77;;
30127;SDS011;16942;53.196;6.592;2022-11-20T15:40:58;10.70;;;6.00;;
30127;SDS011;16942;53.196;6.592;2022-11-20T15:43:24;11.13;;;6.20;;
30127;SDS011;16942;53.196;6.592;2022-11-20T15:46:00;12.30;;;6.83;;
30127;SDS011;16942;53.196;6.592;2022-11-20T15:48:27;12.77;;;7.07;;
30127;SDS011;16942;53.196;6.592;2022-11-20T15:51:54;13.57;;;7.63;;
30127;SDS011;16942;53.196;6.592;2022-11-20T15:53:49;12.90;;;7.43;;
30127;SDS011;16942;53.196;6.592;2022-11-20T15:56:15;12.63;;;7.27;;
30127;SDS011;16942;53.196;6.592;2022-11-20T15:58:41;13.03;;;7.50;;